createdAt,value
2019-03-13T00:35:28.097Z,7.10
2019-03-13T00:37:59.788Z,10.30
2019-03-13T00:40:30.251Z,3.53
2019-03-13T00:43:01.039Z,8.40
2019-03-13T00:45:33.256Z,7.80
2019-03-13T00:48:04.914Z,6.13
2019-03-13T00:50:35.792Z,10.00
2019-03-13T00:53:06.575Z,4.37
2019-03-13T00:55:37.986Z,5.00
2019-03-13T00:58:11.507Z,8.50
2019-03-13T01:01:01.943Z,7.33
2019-03-13T01:03:54.261Z,10.50
2019-03-13T01:06:27.681Z,5.00
2019-03-13T01:08:58.199Z,7.27
2019-03-13T01:11:33.021Z,8.80
2019-03-13T01:14:03.987Z,5.20
2019-03-13T01:16:41.092Z,7.47
2019-03-13T01:19:15.874Z,9.97
2019-03-13T01:21:46.091Z,10.27
2019-03-13T01:24:17.163Z,9.50
2019-03-13T01:26:48.643Z,12.77
2019-03-13T01:29:19.380Z,9.70
2019-03-13T01:32:25.867Z,11.73
2019-03-13T01:35:18.502Z,10.93
2019-03-13T01:37:57.460Z,11.13
2019-03-13T01:40:31.264Z,10.93
2019-03-13T01:43:05.529Z,10.50
2019-03-13T01:45:35.721Z,11.80
2019-03-13T01:48:07.927Z,8.27
2019-03-13T01:50:38.523Z,8.73
2019-03-13T01:53:08.677Z,9.43
2019-03-13T01:55:38.929Z,13.33
2019-03-13T01:58:09.933Z,16.27
2019-03-13T02:00:40.194Z,18.37
2019-03-13T02:03:13.004Z,13.27
2019-03-13T02:05:43.171Z,11.27
2019-03-13T02:08:20.034Z,16.27
2019-03-13T02:10:50.643Z,21.27
2019-03-13T02:13:21.793Z,12.67
2019-03-13T02:15:54.383Z,22.17
2019-03-13T02:18:25.648Z,10.10
2019-03-13T02:20:56.917Z,15.10
2019-03-13T02:23:29.700Z,17.27
2019-03-13T02:26:00.714Z,15.23
2019-03-13T02:28:31.015Z,20.47
2019-03-13T02:31:01.516Z,15.07
2019-03-13T02:33:34.836Z,11.87
2019-03-13T02:36:05.164Z,16.90
2019-03-13T02:38:36.039Z,11.67
2019-03-13T02:41:07.953Z,14.50
2019-03-13T02:43:39.952Z,11.47
2019-03-13T02:46:14.976Z,6.83
2019-03-13T02:48:48.911Z,14.93
2019-03-13T02:51:21.390Z,11.27
2019-03-13T02:53:52.250Z,8.90
2019-03-13T02:56:24.771Z,11.37
2019-03-13T02:58:55.430Z,10.37
2019-03-13T03:01:53.917Z,12.07
2019-03-13T03:04:24.077Z,10.80
2019-03-13T03:06:54.198Z,13.87
2019-03-13T03:09:24.411Z,11.23
2019-03-13T03:11:55.516Z,11.17
2019-03-13T03:14:25.670Z,15.50
2019-03-13T03:16:58.121Z,16.23
2019-03-13T03:19:30.294Z,9.90
2019-03-13T03:22:00.712Z,15.50
2019-03-13T03:24:30.915Z,12.00
2019-03-13T03:27:01.505Z,8.33
2019-03-13T03:29:31.628Z,10.30
2019-03-13T03:32:03.929Z,15.03
2019-03-13T03:34:36.074Z,13.17
2019-03-13T03:37:06.219Z,13.80
2019-03-13T03:39:36.641Z,13.27
2019-03-13T03:42:09.428Z,12.77
2019-03-13T03:44:39.895Z,16.07
2019-03-13T03:47:11.289Z,18.90
2019-03-13T03:49:43.134Z,11.97
2019-03-13T03:52:13.288Z,13.00
2019-03-13T03:54:43.893Z,12.30
2019-03-13T03:57:32.167Z,13.40
2019-03-13T04:00:02.440Z,12.40
2019-03-13T04:02:32.870Z,12.13
2019-03-13T04:05:03.117Z,9.27
2019-03-13T04:07:33.841Z,20.60
2019-03-13T04:10:04.392Z,10.73
2019-03-13T04:12:34.541Z,12.87
2019-03-13T04:15:06.788Z,10.67
2019-03-13T04:17:38.226Z,11.80
2019-03-13T04:20:11.216Z,13.60
2019-03-13T04:22:41.810Z,16.40
2019-03-13T04:25:32.102Z,17.63
2019-03-13T04:28:04.161Z,16.50
2019-03-13T04:30:36.435Z,17.70
2019-03-13T04:33:06.978Z,14.57
2019-03-13T04:35:41.522Z,17.77
2019-03-13T04:38:12.461Z,21.40
2019-03-13T04:40:43.497Z,15.53
2019-03-13T04:43:16.973Z,18.13
2019-03-13T04:45:47.663Z,14.97
2019-03-13T04:48:18.693Z,13.60
2019-03-13T04:50:51.385Z,17.93
2019-03-13T04:53:21.988Z,15.97
2019-03-13T04:55:53.531Z,15.27
2019-03-13T04:58:24.046Z,13.13
2019-03-13T05:01:10.378Z,17.03
2019-03-13T05:03:43.029Z,16.50
2019-03-13T05:06:20.729Z,14.30
2019-03-13T05:08:56.319Z,13.17
2019-03-13T05:11:29.253Z,11.37
2019-03-13T05:14:06.786Z,9.57
2019-03-13T05:16:40.449Z,20.50
2019-03-13T05:19:13.122Z,11.57
2019-03-13T05:21:44.207Z,16.17
2019-03-13T05:24:14.695Z,13.43
2019-03-13T05:26:47.690Z,15.50
2019-03-13T05:29:20.600Z,13.60
2019-03-13T05:31:51.106Z,16.50
2019-03-13T05:34:21.265Z,14.50
2019-03-13T05:36:55.031Z,9.73
2019-03-13T05:39:25.184Z,16.97
2019-03-13T05:41:56.149Z,16.87
2019-03-13T05:44:26.544Z,13.10
2019-03-13T05:46:56.690Z,20.17
2019-03-13T05:49:27.603Z,18.00
2019-03-13T05:52:03.953Z,18.50
2019-03-13T05:54:38.000Z,17.70
2019-03-13T05:57:08.155Z,15.43
2019-03-13T05:59:38.883Z,16.10
2019-03-13T06:02:11.761Z,21.03
2019-03-13T06:04:44.061Z,25.10
2019-03-13T06:07:14.549Z,15.23
2019-03-13T06:09:49.584Z,18.77
2019-03-13T06:12:24.048Z,13.03
2019-03-13T06:14:55.869Z,15.57
2019-03-13T06:17:26.021Z,23.33
2019-03-13T06:19:56.211Z,16.50
2019-03-13T06:22:28.379Z,20.60
2019-03-13T06:25:00.458Z,23.37
2019-03-13T06:27:31.710Z,15.63
2019-03-13T06:30:01.978Z,21.00
2019-03-13T06:32:34.911Z,15.03
2019-03-13T06:35:06.266Z,17.80
2019-03-13T06:37:40.083Z,17.80
2019-03-13T06:40:13.169Z,15.93
2019-03-13T06:42:45.470Z,15.77
2019-03-13T06:45:15.785Z,21.77
2019-03-13T06:47:47.820Z,11.53
2019-03-13T06:50:18.726Z,16.30
2019-03-13T06:52:52.581Z,18.07
2019-03-13T06:55:24.004Z,19.90
2019-03-13T06:57:54.176Z,10.10
2019-03-13T07:00:42.217Z,21.30
2019-03-13T07:03:31.130Z,17.07
2019-03-13T07:06:20.103Z,21.67
2019-03-13T07:08:57.899Z,15.87
2019-03-13T07:11:47.092Z,21.67
2019-03-13T07:14:30.867Z,12.07
2019-03-13T07:17:10.080Z,22.03
2019-03-13T07:20:18.852Z,19.17
2019-03-13T07:22:57.820Z,18.73
2019-03-13T07:25:39.038Z,15.40
2019-03-13T07:28:20.974Z,18.17
2019-03-13T07:31:13.522Z,19.10
2019-03-13T07:34:03.017Z,18.27
2019-03-13T07:36:51.786Z,20.10
2019-03-13T07:39:38.449Z,16.53
2019-03-13T07:42:26.965Z,18.63
2019-03-13T07:45:11.453Z,16.97
2019-03-13T07:47:48.958Z,18.93
2019-03-13T07:50:39.593Z,13.77
2019-03-13T07:53:43.792Z,13.03
2019-03-13T07:56:32.149Z,10.77
2019-03-13T07:59:40.668Z,12.43
2019-03-13T08:02:20.082Z,14.13
2019-03-13T08:05:09.886Z,15.27
2019-03-13T08:07:52.521Z,13.53
2019-03-13T08:10:30.349Z,11.93
2019-03-13T08:13:18.963Z,15.37
2019-03-13T08:16:20.557Z,17.57
2019-03-13T08:19:29.144Z,14.60
2019-03-13T08:22:17.372Z,12.37
2019-03-13T08:25:07.869Z,11.47
2019-03-13T08:27:54.512Z,11.80
2019-03-13T08:30:51.511Z,16.20
2019-03-13T08:33:42.473Z,21.07
2019-03-13T08:36:31.114Z,15.33
2019-03-13T08:39:13.466Z,12.00
2019-03-13T08:42:10.256Z,16.97
2019-03-13T08:45:15.666Z,14.50
2019-03-13T08:48:06.044Z,13.70
2019-03-13T08:50:59.906Z,15.87
2019-03-13T08:53:48.288Z,12.77
2019-03-13T08:56:26.835Z,11.50
2019-03-13T08:59:34.489Z,13.27
2019-03-13T09:02:10.210Z,13.07
2019-03-13T09:04:52.138Z,14.53
2019-03-13T09:07:40.796Z,14.03
2019-03-13T09:10:32.590Z,16.03
2019-03-13T09:13:27.653Z,14.10
2019-03-13T09:16:06.548Z,12.80
2019-03-13T09:19:25.801Z,14.33
2019-03-13T09:22:06.268Z,14.33
2019-03-13T09:25:12.309Z,13.77
2019-03-13T09:28:14.352Z,14.53
2019-03-13T09:31:02.631Z,17.17
2019-03-13T09:34:04.447Z,18.53
2019-03-13T09:37:11.702Z,15.83
2019-03-13T09:40:10.805Z,21.37
2019-03-13T09:43:07.714Z,14.67
2019-03-13T09:46:18.837Z,15.93
2019-03-13T09:49:07.821Z,15.77
2019-03-13T09:52:02.702Z,14.10
2019-03-13T09:54:57.518Z,15.00
2019-03-13T09:57:52.202Z,14.23
2019-03-13T10:00:47.701Z,11.03
2019-03-13T10:03:27.994Z,15.63
2019-03-13T10:09:27.997Z,8.70
2019-03-13T10:12:23.160Z,9.23
2019-03-13T10:15:51.664Z,13.23
2019-03-13T10:18:40.665Z,14.13
2019-03-13T10:21:43.925Z,13.10
2019-03-13T10:24:29.337Z,15.33
2019-03-13T10:27:14.519Z,14.63
2019-03-13T10:29:52.275Z,14.53
2019-03-13T10:32:45.269Z,15.40
2019-03-13T10:35:32.359Z,14.93
2019-03-13T10:38:20.246Z,11.83
2019-03-13T10:41:02.578Z,17.43
2019-03-13T10:43:55.150Z,14.37
2019-03-13T10:46:43.792Z,15.77
2019-03-13T10:49:30.857Z,13.93
2019-03-13T10:52:32.934Z,17.90
2019-03-13T10:55:18.553Z,16.10
2019-03-13T10:58:07.169Z,9.40
2019-03-13T11:01:03.071Z,21.97
2019-03-13T11:03:58.771Z,12.40
2019-03-13T11:06:54.003Z,14.83
2019-03-13T11:09:34.219Z,9.17
2019-03-13T11:12:34.078Z,11.37
2019-03-13T11:15:22.799Z,11.37
2019-03-13T11:18:08.569Z,9.27
2019-03-13T11:20:50.892Z,9.97
2019-03-13T11:24:00.823Z,8.90
2019-03-13T11:26:44.410Z,9.90
2019-03-13T11:29:58.916Z,6.93
2019-03-13T11:33:04.777Z,6.83
2019-03-13T11:35:59.733Z,9.77
2019-03-13T11:38:49.353Z,7.30
2019-03-13T11:41:32.108Z,4.60
2019-03-13T11:44:25.284Z,5.87
2019-03-13T11:47:11.019Z,7.37
2019-03-13T11:50:06.313Z,4.83
2019-03-13T11:52:54.661Z,10.60
2019-03-13T11:55:50.553Z,7.60
2019-03-13T11:58:36.651Z,6.67
2019-03-13T12:01:17.648Z,8.73
2019-03-13T12:04:25.812Z,7.67
2019-03-13T12:07:21.582Z,2.93
2019-03-13T12:10:13.776Z,7.60
2019-03-13T12:13:15.760Z,7.77
2019-03-13T12:16:08.398Z,8.07
2019-03-13T12:19:00.749Z,4.70
2019-03-13T12:22:06.440Z,5.37
2019-03-13T12:25:05.186Z,6.80
2019-03-13T12:27:57.462Z,4.40
2019-03-13T12:30:48.464Z,11.50
2019-03-13T12:33:36.251Z,11.33
2019-03-13T12:36:24.356Z,7.20
2019-03-13T12:39:13.534Z,5.40
2019-03-13T12:42:18.438Z,3.33
2019-03-13T12:44:59.933Z,10.87
2019-03-13T12:47:49.735Z,6.63
2019-03-13T12:50:48.071Z,10.87
2019-03-13T12:53:34.319Z,7.83
2019-03-13T12:56:23.161Z,8.63
2019-03-13T12:59:09.739Z,4.73
2019-03-13T13:02:06.922Z,7.93
2019-03-13T13:05:05.128Z,7.07
2019-03-13T13:08:05.776Z,6.73
2019-03-13T13:10:56.643Z,6.40
2019-03-13T13:13:49.409Z,3.70
2019-03-13T13:16:38.247Z,5.00
2019-03-13T13:19:10.685Z,7.10
2019-03-13T13:21:42.286Z,5.97
2019-03-13T13:24:12.913Z,4.47
2019-03-13T13:26:44.613Z,8.03
2019-03-13T13:29:18.877Z,7.30
2019-03-13T13:31:55.176Z,9.37
2019-03-13T13:34:24.986Z,5.43
2019-03-13T13:36:55.130Z,9.77
2019-03-13T13:39:25.662Z,7.00
2019-03-13T13:41:58.521Z,10.63
2019-03-13T13:44:29.305Z,4.83
2019-03-13T13:47:02.115Z,9.83
2019-03-13T13:49:32.628Z,9.53
2019-03-13T13:52:03.531Z,8.23
2019-03-13T13:54:34.746Z,6.67
2019-03-13T13:57:07.694Z,6.07
2019-03-13T13:59:40.720Z,10.60
2019-03-13T14:02:11.597Z,7.07
2019-03-13T14:04:42.504Z,8.60
2019-03-13T14:07:13.919Z,6.97
2019-03-13T14:09:47.445Z,8.53
2019-03-13T14:12:23.589Z,5.67
2019-03-13T14:14:56.628Z,9.90
2019-03-13T14:17:28.737Z,9.13
2019-03-13T14:19:58.899Z,9.10
2019-03-13T14:22:29.072Z,9.07
2019-03-13T14:25:00.473Z,9.20
2019-03-13T14:27:32.641Z,11.27
2019-03-13T14:30:02.921Z,13.00
2019-03-13T14:32:33.228Z,9.20
2019-03-13T14:35:03.393Z,17.03
2019-03-13T14:37:35.112Z,15.20
2019-03-13T14:40:05.721Z,12.27
2019-03-13T14:42:35.966Z,17.27
2019-03-13T14:45:09.999Z,19.23
2019-03-13T14:47:41.123Z,17.00
2019-03-13T14:50:13.594Z,15.80
2019-03-13T14:52:46.868Z,19.93
2019-03-13T14:55:18.013Z,16.83
2019-03-13T14:57:50.154Z,21.97
2019-03-13T15:00:21.845Z,19.37
2019-03-13T15:02:52.627Z,20.57
2019-03-13T15:05:22.895Z,17.47
2019-03-13T15:07:55.069Z,13.80
2019-03-13T15:10:25.677Z,19.07
2019-03-13T15:12:56.266Z,16.60
2019-03-13T15:15:28.023Z,14.70
2019-03-13T15:17:58.497Z,12.57
2019-03-13T15:20:32.236Z,17.77
2019-03-13T15:23:07.264Z,14.27
2019-03-13T15:25:38.278Z,17.13
2019-03-13T15:28:08.534Z,11.37
2019-03-13T15:30:39.267Z,20.63
2019-03-13T15:33:09.777Z,15.97
2019-03-13T15:35:40.433Z,15.70
2019-03-13T15:38:10.588Z,15.20
2019-03-13T15:40:44.111Z,18.43
2019-03-13T15:43:14.692Z,15.20
2019-03-13T15:45:45.617Z,18.27
2019-03-13T15:48:17.702Z,14.97
2019-03-13T15:50:49.262Z,22.93
2019-03-13T15:53:19.986Z,13.63
2019-03-13T15:55:51.129Z,16.30
2019-03-13T15:58:21.283Z,18.10
2019-03-13T16:00:51.549Z,19.87
2019-03-13T16:03:22.115Z,19.87
2019-03-13T16:05:53.049Z,9.10
2019-03-13T16:08:23.550Z,11.63
2019-03-13T16:10:53.753Z,13.40
2019-03-13T16:14:10.690Z,12.63
2019-03-13T16:16:42.967Z,11.47
2019-03-13T16:19:14.466Z,20.43
2019-03-13T16:21:52.728Z,12.30
2019-03-13T16:24:24.918Z,16.07
2019-03-13T16:26:55.622Z,15.97
2019-03-13T16:29:26.194Z,4.80
2019-03-13T16:32:00.793Z,6.40
2019-03-13T16:34:31.341Z,4.33
2019-03-13T16:37:01.993Z,8.73
2019-03-13T16:39:32.974Z,4.77
2019-03-13T16:42:03.561Z,5.30
2019-03-13T16:44:36.032Z,3.90
2019-03-13T16:47:09.174Z,3.17
2019-03-13T16:49:40.260Z,3.37
2019-03-13T16:52:11.824Z,1.70
2019-03-13T16:54:41.989Z,1.40
2019-03-13T16:57:12.604Z,2.50
2019-03-13T17:00:12.517Z,4.10
2019-03-13T17:02:45.213Z,2.37
2019-03-13T17:05:15.941Z,7.73
2019-03-13T17:07:49.866Z,3.77
2019-03-13T17:10:27.114Z,5.90
2019-03-13T17:12:58.895Z,5.80
2019-03-13T17:15:30.154Z,3.93
2019-03-13T17:18:01.591Z,4.23
2019-03-13T17:20:33.243Z,5.80
2019-03-13T17:23:03.789Z,5.50
2019-03-13T17:25:34.112Z,4.00
2019-03-13T17:28:27.114Z,7.43
2019-03-13T17:30:57.727Z,3.73
2019-03-13T17:33:29.235Z,7.87
2019-03-13T17:36:04.860Z,5.37
2019-03-13T17:38:38.887Z,8.73
2019-03-13T17:41:09.095Z,8.73
2019-03-13T17:43:39.837Z,6.93
2019-03-13T17:46:10.069Z,6.60
2019-03-13T17:48:40.724Z,6.83
2019-03-13T17:51:13.091Z,11.23
2019-03-13T17:53:43.624Z,7.47
2019-03-13T17:56:13.877Z,12.10
2019-03-13T17:58:44.474Z,16.97
2019-03-13T18:01:17.052Z,12.77
2019-03-13T18:03:51.142Z,13.93
2019-03-13T18:06:24.385Z,14.20
2019-03-13T18:08:57.379Z,13.40
2019-03-13T18:11:28.998Z,12.50
2019-03-13T18:14:02.067Z,13.57
2019-03-13T18:16:43.255Z,12.97
2019-03-13T18:19:17.283Z,10.17
2019-03-13T18:21:48.042Z,18.77
2019-03-13T18:24:19.476Z,13.73
2019-03-13T18:27:09.839Z,11.23
2019-03-13T18:29:40.011Z,8.23
2019-03-13T18:32:11.733Z,13.10
2019-03-13T18:34:43.311Z,14.33
2019-03-13T18:37:13.451Z,10.70
2019-03-13T18:39:45.214Z,12.80
2019-03-13T18:42:15.935Z,13.83
2019-03-13T18:44:46.111Z,12.57
2019-03-13T18:47:16.587Z,16.53
2019-03-13T18:49:47.191Z,12.50
2019-03-13T18:52:18.664Z,9.53
2019-03-13T18:54:49.289Z,14.87
2019-03-13T18:57:19.489Z,10.33
2019-03-13T18:59:49.636Z,13.97
2019-03-13T19:02:19.814Z,15.23
2019-03-13T19:04:52.430Z,10.70
2019-03-13T19:07:27.708Z,10.07
2019-03-13T19:09:59.994Z,10.63
2019-03-13T19:12:31.693Z,7.67
2019-03-13T19:15:02.814Z,9.27
2019-03-13T19:17:34.120Z,9.97
2019-03-13T19:20:08.303Z,8.53
2019-03-13T19:22:40.103Z,13.67
2019-03-13T19:25:12.281Z,9.20
2019-03-13T19:27:45.982Z,13.57
2019-03-13T19:30:26.958Z,17.37
2019-03-13T19:32:57.357Z,14.83
2019-03-13T19:35:29.129Z,10.03
2019-03-13T19:38:01.432Z,11.13
2019-03-13T19:40:31.598Z,13.07
2019-03-13T19:43:04.108Z,16.60
2019-03-13T19:45:40.565Z,10.90
2019-03-13T19:48:14.957Z,13.93
2019-03-13T19:50:45.104Z,10.57
2019-03-13T19:53:26.999Z,12.83
2019-03-13T19:56:00.767Z,13.87
2019-03-13T19:58:32.300Z,11.33
2019-03-13T20:01:03.694Z,11.23
2019-03-13T20:03:34.216Z,11.20
2019-03-13T20:06:06.657Z,15.37
2019-03-13T20:08:40.185Z,17.30
2019-03-13T20:11:11.409Z,15.23
2019-03-13T20:13:42.469Z,11.20
2019-03-13T20:16:14.822Z,13.63
2019-03-13T20:18:45.754Z,16.13
2019-03-13T20:21:18.966Z,14.70
2019-03-13T20:23:49.140Z,15.93
2019-03-13T20:26:37.676Z,21.27
2019-03-13T20:29:21.434Z,20.30
2019-03-13T20:31:59.409Z,22.53
2019-03-13T20:34:36.206Z,22.73
2019-03-13T20:37:06.470Z,19.63
2019-03-13T20:39:37.975Z,17.57
2019-03-13T20:45:44.696Z,20.77
2019-03-13T20:48:15.516Z,22.57
2019-03-13T20:50:47.825Z,21.63
2019-03-13T20:53:21.992Z,18.07
2019-03-13T20:55:52.776Z,18.23
2019-03-13T20:58:25.756Z,15.73
2019-03-13T21:00:56.812Z,13.67
2019-03-13T21:03:30.194Z,10.47
2019-03-13T21:06:00.863Z,14.93
2019-03-13T21:08:35.839Z,11.60
2019-03-13T21:11:07.880Z,12.93
2019-03-13T21:13:40.331Z,11.33
2019-03-13T21:16:14.675Z,12.97
2019-03-13T21:19:32.667Z,9.90
2019-03-13T21:22:15.854Z,7.60
2019-03-13T21:24:49.697Z,10.93
2019-03-13T21:27:20.231Z,8.20
2019-03-13T21:29:53.483Z,9.73
2019-03-13T21:32:24.143Z,10.00
2019-03-13T21:34:56.127Z,11.37
2019-03-13T21:37:28.990Z,11.27
2019-03-13T21:40:00.065Z,13.27
2019-03-13T21:42:31.729Z,15.97
2019-03-13T21:45:05.719Z,11.37
2019-03-13T21:47:43.152Z,16.63
2019-03-13T21:50:15.518Z,12.20
2019-03-13T21:52:46.502Z,16.07
2019-03-13T21:55:20.478Z,12.27
2019-03-13T22:00:53.227Z,13.37
2019-03-13T22:03:29.858Z,13.13
2019-03-13T22:05:58.987Z,15.80
2019-03-13T22:08:29.991Z,15.43
2019-03-13T22:11:00.255Z,13.53
2019-03-13T22:13:31.767Z,17.00
2019-03-13T22:16:23.127Z,18.93
2019-03-13T22:18:53.821Z,19.50
2019-03-13T22:21:25.146Z,12.97
2019-03-13T22:23:55.301Z,20.57
2019-03-13T22:26:27.025Z,26.37
2019-03-13T22:28:57.609Z,21.80
2019-03-13T22:31:27.822Z,13.23
2019-03-13T22:34:00.356Z,12.70
2019-03-13T22:36:32.714Z,19.97
2019-03-13T22:39:26.751Z,14.07
2019-03-13T22:43:19.356Z,12.33
2019-03-13T22:46:25.738Z,11.13
2019-03-13T22:49:51.092Z,13.50
2019-03-13T22:52:27.547Z,12.77
2019-03-13T22:58:10.966Z,14.93
2019-03-13T23:08:53.702Z,11.23
2019-03-13T23:19:32.326Z,10.50
2019-03-13T23:22:23.979Z,9.27
2019-03-13T23:25:46.338Z,7.30
2019-03-13T23:28:41.723Z,9.37
2019-03-13T23:31:14.405Z,9.27
2019-03-13T23:34:25.388Z,6.60
2019-03-13T23:36:57.471Z,8.07
2019-03-13T23:39:59.658Z,6.43
2019-03-13T23:43:22.358Z,6.97
2019-03-13T23:46:02.911Z,5.93
2019-03-13T23:52:04.692Z,8.93
2019-03-13T23:55:06.562Z,6.80
2019-03-13T23:57:40.823Z,8.93
